Historyczne dane pomiarowe

Dodano dane terminowe – wersja testowa.

Dane z okresu 1951-2019

Wersja bazy: 1.34 [2019-03-16, lista zmian], aktualizacja planowana na 2019-04-15

Dane meteo z obszaru Polski uzyskane na podstawie danych udostępnionych przez Instytut Meteorologii i Gospodarki Wodnej – Państwowy Instytut Badawczy.

 

Wybierz Datę:    

       

TemperaturaWilgotnośćWiatrCiśnienieOpadyŚniegCzas trwania zjawisk
 Stacja t tx tn tng RH VA  wxwx mslp ppp RRR   cm mm wxwxwxwxwxwxwx
1964-02-15-12.8 -5.1-23.3- 75.5- 3.0 0.7---- 0.0-- 18---------
1964-02-14-16.0 -6.1-22.8- 73.0- 3.3 1.0---- 0.0-- 18---------
1964-02-13 -6.7 -2.8 -9.3- 82.0- 7.3 4.0---- 2.2-- 16---------
1964-02-12 -5.5 -1.3 -8.1- 84.8- 6.3 7.0---- 8.6-- 2---------
1964-02-11 -0.7 2.9 -3.3- 85.0- 6.0 5.0---- 0.5------------
1964-02-10 -1.7 1.8 -6.2- 90.0- 8.0 5.0---- 0.6------------
1964-02-09 -0.9 3.8 -2.5- 85.3- 8.0 8.7---- 0.0------------
1964-02-08 1.9 2.8 -1.3- 87.8- 5.3 5.7---- 1.3-- 2---------
1964-02-07 -2.1 0.7 -5.2- 87.3- 5.0 3.7---- 0.0-- 3---------
1964-02-06 -3.2 -0.9 -6.3- 81.8- 5.7 6.7---- 1.8-- 2---------
1964-02-05 -0.7 2.7 -2.3- 87.8- 5.3 6.3---- 0.5------------
1964-02-04 2.8 4.4 0.8- 84.5- 6.7 6.0---- 0.0------------
1964-02-03 0.2 2.2 -2.3- 93.0- 6.3 1.7---- 0.8------------
1964-02-02 2.4 4.9 1.3- 79.8- 8.0 7.3---- 0.0------------
1964-02-01 2.4 5.4 -0.3- 93.0- 8.0 5.0---- 2.9------------
1964-01-31 2.0 3.4 -1.3- 83.5- 8.0 5.3---- 2.5-- 5---------
1964-01-30 0.3 1.4 -1.8- 85.0- 8.0 9.3---- 0.3------------
1964-01-29 -3.0 -0.6 -9.0- 84.8- 5.0 2.7---- 0.0------------
1964-01-28 -5.4 -2.1 -9.3- 82.0- 4.0 3.7---- 0.0------------
1964-01-27 -3.4 4.9 -5.3- 89.3- 3.0 4.3---- 0.0------------
1964-01-26 1.4 4.9 -4.3- 85.8- 4.7 8.0---- 2.3------------
1964-01-25 1.4 3.9-- 72.8- 2.7 5.7---- 0.0------------
1964-01-24 1.4 2.5-- 75.8- 7.7 6.7---- 1.4------------
1964-01-23 -0.4 1.8-- 92.0- 5.7 4.7---- 0.0------------
1964-01-22 2.2 8.9-- 90.0- 3.3 6.7---- 0.0-- 3---------
1964-01-21 0.5 2.6-- 88.0- 8.0 6.3---- 0.0-- 12---------
1964-01-20 -2.0 -0.1-- 87.5- 8.0 3.3---- 0.0-- 15---------
1964-01-19 -0.4 0.9-- 87.0- 7.0 4.3---- 0.2-- 15---------
1964-01-18 0.1 1.4-- 86.8- 8.0 3.0---- 0.0-- 15---------
1964-01-17 -0.5 1.7-- 87.8- 6.0 5.7---- 0.4-- 17---------
1964-01-16 -8.3 -2.1-- 80.5- 3.7 2.7---- 0.8-- 16---------
1964-01-15 -4.3 -2.1-- 89.8- 3.3 3.7---- 5.8-- 3---------
1964-01-14 -4.5 -2.4 -7.1- 88.3- 3.3 2.7---- 0.9-- 3---------
1964-01-13 -5.7 -2.5-14.3- 91.3- 8.0 2.3---- 0.1-- 3---------
1964-01-12-12.0 -9.1-17.4- 87.5- 2.7 1.3---- 0.0-- 3---------
1964-01-11-11.6 -6.6-13.8- 82.0- 6.3 0.3---- 0.0-- 3---------
1964-01-10 -7.0 -4.3 -7.8- 89.5- 8.0 1.0---- 0.0-- 3---------
1964-01-09 -5.1 0.8 -9.8- 88.3- 8.0 3.3---- 0.0-- 3---------
1964-01-08 0.2 0.9 -0.8- 93.0- 8.0 3.3---- 1.7-- 1---------
1964-01-07 -1.8 -0.2 -8.9- 94.5- 8.0 2.0---- 0.3------------
1964-01-06 -6.9 -4.2 -8.5- 87.0- 4.7 0.3---- 0.0------------
1964-01-05 -4.4 -1.6 -6.3- 88.5- 6.0 1.0---- 0.0------------
1964-01-04 -2.4 0.9 -3.8- 89.8- 2.3 7.0---- 0.0------------
1964-01-03 -1.0 1.7 -1.9- 91.5- 5.3 2.3---- 0.0------------
1964-01-02 1.7 3.3 0.3- 87.3- 7.7 1.3---- 0.0------------
1964-01-01 0.3 1.9 -2.3- 89.0- 8.0 7.0---- 0.0------------
1963-12-31 0.4 3.5 -0.8- 86.5- 5.0 7.3---- 0.0------------
1963-12-30 2.1 3.2 -0.8- 88.0- 6.7 4.7---- 0.0------------
1963-12-29 0.8 2.8 -0.5- 96.3- 8.0 3.7---- 0.0------------
1963-12-28 2.1 3.8 0.8- 90.3- 8.0 3.7---- 2.8-- 2---------
1963-12-27 2.7 3.8 0.3- 84.5- 8.0 8.7---- 0.0-- 5---------
1963-12-26 0.3 1.6 -7.8- 89.5- 7.0 7.3---- 3.0-- 8---------
1963-12-25 -7.0 -4.1-15.3- 79.5- 4.7 5.7---- 0.0-- 12---------
1963-12-24-10.0 -3.9-14.3- 86.0- 3.7 2.7---- 0.0-- 12---------
1963-12-23 -5.6 -1.0-12.3- 88.3- 6.0 3.7---- 0.3-- 12---------
1963-12-22 -9.5 -5.0-12.3- 85.5- 2.3 1.7---- 0.0-- 12---------
1963-12-21 -7.4 -4.6 -8.3- 87.5- 4.0 3.0---- 0.0-- 12---------
1963-12-20 -6.2 -3.7 -8.0- 86.0- 8.0 5.7---- 0.0-- 12---------
1963-12-19 -5.5 -3.7 -8.5- 89.5- 8.0 9.7---- 0.0-- 12---------
1963-12-18 -7.4 -5.1-12.8- 87.0- 6.7 7.3---- 0.2-- 12---------
2525.0 ms

 

Źródłem pochodzenia danych jest Instytut Meteorologii i Gospodarki Wodnej – Państwowy Instytut Badawczy. Dane Instytutu Meteorologii i Gospodarki Wodnej – Państwowego Instytutu Badawczego zostały przetworzone.

Dane źródłowe można odnaleźć na stronie https://dane.imgw.pl